LFMN/NCE METAR and TAF weather

Enter ICAO airport designator
Station Type Date Time Source
LFMN METAR 2019/12/07 17:30 UTC NOAA

LFMN 071730Z 32006KT 9999 FEW030 11/08 Q1018 NOSIG


Station Type Date Time Source
LFMN Decoded METAR 2019/12/07 17:30 UTC NOAA

Nice, France (LFMN) 43-39N 007-12E 10M
Dec 07, 2019 - 12:30 PM EST / 2019.12.07 1730 UTC
Wind: from the NW (320 degrees) at 7 MPH (6 KT):0
Visibility: greater than 7 mile(s):0
Sky conditions: mostly clear
Temperature: 51 F (11 C)
Dew Point: 46 F (8 C)
Relative Humidity: 81%
Pressure (altimeter): 30.06 in. Hg (1018 hPa)
ob: LFMN 071730Z 32006KT 9999 FEW030 11/08 Q1018 NOSIG
cycle: 17

Station Type Date Time Source
LFMN TAF 2019/12/07 15:42 UTC NOAA

TAF TAF LFMN 071400Z 0715/0821 VRB05KT 9999 FEW025
BECMG 0716/0718 34010KT PROB40
TEMPO 0718/0720 BKN020
TEMPO 0803/0811 BKN020
BECMG 0811/0813 20008KT
BECMG 0816/0818 34010KT

Example: see airport list